sensor_id;sensor_type;location;lat;lon;timestamp;pressure;altitude;pressure_sealevel;temperature;humidity
6899;BME280;3488;42.616;23.350;2023-06-14T00:01:36;63682.16;;;16.30;100.00
6899;BME280;3488;42.616;23.350;2023-06-14T00:04:04;63695.13;;;16.37;100.00
6899;BME280;3488;42.616;23.350;2023-06-14T00:06:34;63684.78;;;16.32;100.00
6899;BME280;3488;42.616;23.350;2023-06-14T00:09:01;63695.13;;;16.37;100.00
6899;BME280;3488;42.616;23.350;2023-06-14T00:11:28;63695.66;;;16.40;100.00
6899;BME280;3488;42.616;23.350;2023-06-14T00:13:57;63691.00;;;16.38;100.00
6899;BME280;3488;42.616;23.350;2023-06-14T00:16:25;63683.13;;;16.23;100.00
6899;BME280;3488;42.616;23.350;2023-06-14T00:18:52;63693.03;;;16.35;100.00
6899;BME280;3488;42.616;23.350;2023-06-14T00:21:19;63694.16;;;16.44;100.00
6899;BME280;3488;42.616;23.350;2023-06-14T00:23:46;63693.09;;;16.40;100.00
6899;BME280;3488;42.616;23.350;2023-06-14T00:26:13;63692.09;;;16.42;100.00
6899;BME280;3488;42.616;23.350;2023-06-14T00:28:40;63679.06;;;16.29;100.00
6899;BME280;3488;42.616;23.350;2023-06-14T00:31:08;63685.28;;;16.33;100.00
6899;BME280;3488;42.616;23.350;2023-06-14T00:33:35;63684.22;;;16.29;100.00
6899;BME280;3488;42.616;23.350;2023-06-14T00:36:02;63689.44;;;16.37;100.00
6899;BME280;3488;42.616;23.350;2023-06-14T00:38:29;63694.69;;;16.44;100.00
6899;BME280;3488;42.616;23.350;2023-06-14T00:40:56;63688.44;;;16.38;100.00
6899;BME280;3488;42.616;23.350;2023-06-14T00:43:23;63706.09;;;16.50;100.00
6899;BME280;3488;42.616;23.350;2023-06-14T00:45:50;63700.94;;;16.50;100.00
6899;BME280;3488;42.616;23.350;2023-06-14T00:48:19;63713.91;;;16.58;100.00
6899;BME280;3488;42.616;23.350;2023-06-14T00:50:48;63719.09;;;16.63;100.00
6899;BME280;3488;42.616;23.350;2023-06-14T00:53:16;63691.06;;;16.41;100.00
6899;BME280;3488;42.616;23.350;2023-06-14T00:55:44;63702.50;;;16.52;100.00
6899;BME280;3488;42.616;23.350;2023-06-14T00:58:11;63708.69;;;16.53;100.00
6899;BME280;3488;42.616;23.350;2023-06-14T01:00:38;63705.59;;;16.52;100.00
6899;BME280;3488;42.616;23.350;2023-06-14T01:03:05;63705.06;;;16.52;100.00
6899;BME280;3488;42.616;23.350;2023-06-14T01:05:34;63702.00;;;16.51;100.00
6899;BME280;3488;42.616;23.350;2023-06-14T01:08:11;63707.63;;;16.49;100.00
6899;BME280;3488;42.616;23.350;2023-06-14T01:10:47;63698.28;;;16.45;100.00
6899;BME280;3488;42.616;23.350;2023-06-14T01:13:20;63700.88;;;16.45;100.00
6899;BME280;3488;42.616;23.350;2023-06-14T01:15:50;63693.06;;;16.38;100.00
6899;BME280;3488;42.616;23.350;2023-06-14T01:18:18;63691.06;;;16.41;100.00
6899;BME280;3488;42.616;23.350;2023-06-14T01:20:47;63668.16;;;16.18;100.00
6899;BME280;3488;42.616;23.350;2023-06-14T01:23:17;63695.19;;;16.42;100.00
6899;BME280;3488;42.616;23.350;2023-06-14T01:25:45;63691.53;;;16.39;100.00
6899;BME280;3488;42.616;23.350;2023-06-14T01:28:13;63689.97;;;16.37;100.00
6899;BME280;3488;42.616;23.350;2023-06-14T01:30:44;63686.88;;;16.37;100.00
6899;BME280;3488;42.616;23.350;2023-06-14T01:33:14;63683.25;;;16.33;100.00
6899;BME280;3488;42.616;23.350;2023-06-14T01:35:47;63689.97;;;16.37;100.00
6899;BME280;3488;42.616;23.350;2023-06-14T01:38:14;63685.31;;;16.35;100.00
6899;BME280;3488;42.616;23.350;2023-06-14T01:40:44;63686.88;;;16.37;100.00
6899;BME280;3488;42.616;23.350;2023-06-14T01:43:12;63682.22;;;16.35;100.00
6899;BME280;3488;42.616;23.350;2023-06-14T01:45:40;63687.84;;;16.33;100.00
6899;BME280;3488;42.616;23.350;2023-06-14T01:48:08;63683.22;;;16.31;100.00
6899;BME280;3488;42.616;23.350;2023-06-14T01:50:36;63681.13;;;16.29;100.00
6899;BME280;3488;42.616;23.350;2023-06-14T01:53:05;63674.38;;;16.22;100.00
6899;BME280;3488;42.616;23.350;2023-06-14T01:55:33;63667.13;;;16.17;100.00
6899;BME280;3488;42.616;23.350;2023-06-14T01:58:04;63668.63;;;16.14;100.00
6899;BME280;3488;42.616;23.350;2023-06-14T02:00:31;63663.41;;;16.09;100.00
6899;BME280;3488;42.616;23.350;2023-06-14T02:02:59;63648.91;;;16.00;100.00
6899;BME280;3488;42.616;23.350;2023-06-14T02:05:26;63639.03;;;15.90;100.00
6899;BME280;3488;42.616;23.350;2023-06-14T02:07:54;63628.63;;;15.78;100.00
6899;BME280;3488;42.616;23.350;2023-06-14T02:10:21;63614.53;;;15.62;100.00
6899;BME280;3488;42.616;23.350;2023-06-14T02:12:48;63626.50;;;15.73;100.00
6899;BME280;3488;42.616;23.350;2023-06-14T02:15:19;63614.59;;;15.64;100.00
6899;BME280;3488;42.616;23.350;2023-06-14T02:17:47;63603.72;;;15.59;100.00
6899;BME280;3488;42.616;23.350;2023-06-14T02:20:15;63602.09;;;15.52;100.00
6899;BME280;3488;42.616;23.350;2023-06-14T02:22:42;63592.75;;;15.43;100.00
6899;BME280;3488;42.616;23.350;2023-06-14T02:25:09;63586.00;;;15.39;100.00
6899;BME280;3488;42.616;23.350;2023-06-14T02:27:36;63587.47;;;15.33;100.00
6899;BME280;3488;42.616;23.350;2023-06-14T02:30:04;63583.88;;;15.35;100.00
6899;BME280;3488;42.616;23.350;2023-06-14T02:32:33;63582.34;;;15.33;100.00
6899;BME280;3488;42.616;23.350;2023-06-14T02:35:01;63581.78;;;15.30;100.00
6899;BME280;3488;42.616;23.350;2023-06-14T02:37:28;63566.81;;;15.23;100.00
6899;BME280;3488;42.616;23.350;2023-06-14T02:39:55;63576.09;;;15.27;100.00
6899;BME280;3488;42.616;23.350;2023-06-14T02:42:22;63576.13;;;15.30;100.00
6899;BME280;3488;42.616;23.350;2023-06-14T02:44:49;63581.31;;;15.32;100.00
6899;BME280;3488;42.616;23.350;2023-06-14T02:47:17;63579.72;;;15.28;100.00
6899;BME280;3488;42.616;23.350;2023-06-14T02:49:46;63584.41;;;15.35;100.00
6899;BME280;3488;42.616;23.350;2023-06-14T02:52:13;63584.44;;;15.38;100.00
6899;BME280;3488;42.616;23.350;2023-06-14T02:54:40;63583.88;;;15.35;100.00
6899;BME280;3488;42.616;23.350;2023-06-14T02:57:07;63593.78;;;15.44;100.00
6899;BME280;3488;42.616;23.350;2023-06-14T02:59:34;63599.00;;;15.49;100.00
6899;BME280;3488;42.616;23.350;2023-06-14T03:02:01;63592.19;;;15.40;100.00
6899;BME280;3488;42.616;23.350;2023-06-14T03:04:29;63595.84;;;15.44;100.00
6899;BME280;3488;42.616;23.350;2023-06-14T03:07:04;63603.63;;;15.51;100.00
6899;BME280;3488;42.616;23.350;2023-06-14T03:09:35;63606.81;;;15.59;100.00
6899;BME280;3488;42.616;23.350;2023-06-14T03:12:02;63608.97;;;15.66;100.00
6899;BME280;3488;42.616;23.350;2023-06-14T03:14:31;63625.47;;;15.72;100.00
6899;BME280;3488;42.616;23.350;2023-06-14T03:16:58;63634.28;;;15.78;100.00
6899;BME280;3488;42.616;23.350;2023-06-14T03:19:26;63632.84;;;15.87;100.00
6899;BME280;3488;42.616;23.350;2023-06-14T03:21:52;63646.28;;;15.95;100.00
6899;BME280;3488;42.616;23.350;2023-06-14T03:24:23;63651.97;;;15.98;100.00
6899;BME280;3488;42.616;23.350;2023-06-14T03:26:52;63663.97;;;16.12;100.00
6899;BME280;3488;42.616;23.350;2023-06-14T03:29:20;63670.75;;;16.21;100.00
6899;BME280;3488;42.616;23.350;2023-06-14T03:31:57;63673.44;;;16.29;100.00
6899;BME280;3488;42.616;23.350;2023-06-14T03:34:24;63691.56;;;16.41;100.00
6899;BME280;3488;42.616;23.350;2023-06-14T03:36:51;63691.59;;;16.44;100.00
6899;BME280;3488;42.616;23.350;2023-06-14T03:39:18;63702.97;;;16.47;100.00
6899;BME280;3488;42.616;23.350;2023-06-14T03:41:47;63705.06;;;16.52;100.00
6899;BME280;3488;42.616;23.350;2023-06-14T03:44:16;63707.19;;;16.56;100.00
6899;BME280;3488;42.616;23.350;2023-06-14T03:46:44;63711.34;;;16.60;100.00
6899;BME280;3488;42.616;23.350;2023-06-14T03:49:12;63718.13;;;16.67;100.00
6899;BME280;3488;42.616;23.350;2023-06-14T03:51:39;63725.91;;;16.72;100.00
6899;BME280;3488;42.616;23.350;2023-06-14T03:54:06;63726.47;;;16.77;100.00
6899;BME280;3488;42.616;23.350;2023-06-14T03:56:34;63724.88;;;16.73;100.00
6899;BME280;3488;42.616;23.350;2023-06-14T03:59:02;63736.84;;;16.85;100.00
6899;BME280;3488;42.616;23.350;2023-06-14T04:01:29;63738.97;;;16.89;100.00
6899;BME280;3488;42.616;23.350;2023-06-14T04:03:57;63757.56;;;16.97;100.00
6899;BME280;3488;42.616;23.350;2023-06-14T04:06:24;63756.56;;;16.99;100.00
6899;BME280;3488;42.616;23.350;2023-06-14T04:08:57;63756.59;;;17.01;100.00
6899;BME280;3488;42.616;23.350;2023-06-14T04:11:29;63757.63;;;17.02;100.00
6899;BME280;3488;42.616;23.350;2023-06-14T04:13:56;63758.66;;;17.03;100.00
6899;BME280;3488;42.616;23.350;2023-06-14T04:16:25;63770.66;;;17.15;100.00
6899;BME280;3488;42.616;23.350;2023-06-14T04:18:54;63778.94;;;17.20;100.00
6899;BME280;3488;42.616;23.350;2023-06-14T04:21:21;63772.22;;;17.19;100.00
6899;BME280;3488;42.616;23.350;2023-06-14T04:23:49;63770.16;;;17.17;100.00
6899;BME280;3488;42.616;23.350;2023-06-14T04:26:18;63751.97;;;17.02;100.00
6899;BME280;3488;42.616;23.350;2023-06-14T04:28:47;63755.03;;;17.00;100.00
6899;BME280;3488;42.616;23.350;2023-06-14T04:31:15;63744.59;;;16.87;100.00
6899;BME280;3488;42.616;23.350;2023-06-14T04:33:43;63744.09;;;16.89;100.00
6899;BME280;3488;42.616;23.350;2023-06-14T04:36:12;63755.53;;;17.00;100.00
6899;BME280;3488;42.616;23.350;2023-06-14T04:38:43;63758.16;;;17.03;100.00
6899;BME280;3488;42.616;23.350;2023-06-14T04:41:11;63753.97;;;16.99;100.00
6899;BME280;3488;42.616;23.350;2023-06-14T04:43:38;63742.03;;;16.87;100.00
6899;BME280;3488;42.616;23.350;2023-06-14T04:46:06;63752.44;;;16.97;100.00
6899;BME280;3488;42.616;23.350;2023-06-14T04:48:36;63755.59;;;17.03;100.00
6899;BME280;3488;42.616;23.350;2023-06-14T04:51:07;63764.38;;;17.09;100.00
6899;BME280;3488;42.616;23.350;2023-06-14T04:53:35;63751.94;;;16.99;100.00
6899;BME280;3488;42.616;23.350;2023-06-14T04:56:02;63756.59;;;17.01;100.00
6899;BME280;3488;42.616;23.350;2023-06-14T04:58:29;63754.03;;;17.01;100.00
6899;BME280;3488;42.616;23.350;2023-06-14T05:00:57;63755.03;;;17.00;100.00
6899;BME280;3488;42.616;23.350;2023-06-14T05:03:24;63776.88;;;17.18;100.00
6899;BME280;3488;42.616;23.350;2023-06-14T05:05:53;63782.06;;;17.23;100.00
6899;BME280;3488;42.616;23.350;2023-06-14T05:08:22;63777.94;;;17.22;100.00
6899;BME280;3488;42.616;23.350;2023-06-14T05:10:50;63799.22;;;17.40;100.00
6899;BME280;3488;42.616;23.350;2023-06-14T05:13:17;63802.34;;;17.43;100.00
6899;BME280;3488;42.616;23.350;2023-06-14T05:15:44;63797.72;;;17.41;100.00
6899;BME280;3488;42.616;23.350;2023-06-14T05:18:12;63792.50;;;17.36;100.00
6899;BME280;3488;42.616;23.350;2023-06-14T05:20:41;63795.06;;;17.36;100.00
6899;BME280;3488;42.616;23.350;2023-06-14T05:23:09;63788.81;;;17.30;100.00
6899;BME280;3488;42.616;23.350;2023-06-14T05:25:42;63801.88;;;17.45;100.00
6899;BME280;3488;42.616;23.350;2023-06-14T05:28:10;63820.59;;;17.58;100.00
6899;BME280;3488;42.616;23.350;2023-06-14T05:30:38;63803.94;;;17.45;100.00
6899;BME280;3488;42.616;23.350;2023-06-14T05:33:06;63798.19;;;17.39;100.00
6899;BME280;3488;42.616;23.350;2023-06-14T05:35:33;63788.84;;;17.32;100.00
6899;BME280;3488;42.616;23.350;2023-06-14T05:38:00;63789.38;;;17.33;100.00
6899;BME280;3488;42.616;23.350;2023-06-14T05:40:27;63788.31;;;17.29;100.00
6899;BME280;3488;42.616;23.350;2023-06-14T05:42:56;63787.28;;;17.31;100.00
6899;BME280;3488;42.616;23.350;2023-06-14T05:45:23;63814.91;;;17.60;100.00
6899;BME280;3488;42.616;23.350;2023-06-14T05:47:50;63827.44;;;17.72;100.00
6899;BME280;3488;42.616;23.350;2023-06-14T05:50:19;63825.81;;;17.66;100.00
6899;BME280;3488;42.616;23.350;2023-06-14T05:52:46;63830.47;;;17.68;100.00
6899;BME280;3488;42.616;23.350;2023-06-14T05:55:15;63839.44;;;17.86;100.00
6899;BME280;3488;42.616;23.350;2023-06-14T05:57:42;63850.84;;;17.95;100.00
6899;BME280;3488;42.616;23.350;2023-06-14T06:00:12;63837.28;;;17.79;100.00
6899;BME280;3488;42.616;23.350;2023-06-14T06:02:41;63864.88;;;18.03;100.00
6899;BME280;3488;42.616;23.350;2023-06-14T06:05:09;63835.25;;;17.80;100.00
6899;BME280;3488;42.616;23.350;2023-06-14T06:07:36;63872.72;;;18.16;100.00
6899;BME280;3488;42.616;23.350;2023-06-14T06:10:06;63873.22;;;18.14;100.00
6899;BME280;3488;42.616;23.350;2023-06-14T06:12:33;63869.06;;;18.10;100.00
6899;BME280;3488;42.616;23.350;2023-06-14T06:28:43;63811.78;;;17.55;100.00
6899;BME280;3488;42.616;23.350;2023-06-14T06:31:10;63804.50;;;17.50;100.00
6899;BME280;3488;42.616;23.350;2023-06-14T06:33:37;63803.44;;;17.47;100.00
6899;BME280;3488;42.616;23.350;2023-06-14T06:36:05;63820.06;;;17.60;100.00
6899;BME280;3488;42.616;23.350;2023-06-14T06:38:32;63824.81;;;17.70;100.00
6899;BME280;3488;42.616;23.350;2023-06-14T06:40:59;63815.44;;;17.61;100.00
6899;BME280;3488;42.616;23.350;2023-06-14T06:43:26;63798.78;;;17.45;100.00
6899;BME280;3488;42.616;23.350;2023-06-14T06:45:54;63817.50;;;17.60;100.00
6899;BME280;3488;42.616;23.350;2023-06-14T06:48:21;63826.38;;;17.69;100.00
6899;BME280;3488;42.616;23.350;2023-06-14T06:50:48;63847.19;;;17.89;100.00
6899;BME280;3488;42.616;23.350;2023-06-14T06:53:14;63850.31;;;17.92;100.00
6899;BME280;3488;42.616;23.350;2023-06-14T06:55:43;63836.78;;;17.81;100.00
6899;BME280;3488;42.616;23.350;2023-06-14T06:58:11;63825.31;;;17.68;100.00
6899;BME280;3488;42.616;23.350;2023-06-14T07:00:38;63866.47;;;18.07;100.00
6899;BME280;3488;42.616;23.350;2023-06-14T07:03:07;63922.19;;;18.59;100.00
6899;BME280;3488;42.616;23.350;2023-06-14T07:05:34;63965.00;;;19.05;100.00
6899;BME280;3488;42.616;23.350;2023-06-14T07:08:01;63987.41;;;19.26;100.00
6899;BME280;3488;42.616;23.350;2023-06-14T07:10:29;63973.88;;;19.16;100.00
6899;BME280;3488;42.616;23.350;2023-06-14T07:12:56;63980.09;;;19.17;100.00
6899;BME280;3488;42.616;23.350;2023-06-14T07:15:23;64008.78;;;19.44;100.00
6899;BME280;3488;42.616;23.350;2023-06-14T07:17:51;63998.84;;;19.32;100.00
6899;BME280;3488;42.616;23.350;2023-06-14T07:20:19;64016.09;;;19.54;100.00
6899;BME280;3488;42.616;23.350;2023-06-14T07:22:48;64042.19;;;19.79;100.00
6899;BME280;3488;42.616;23.350;2023-06-14T07:25:15;64062.50;;;19.96;100.00
6899;BME280;3488;42.616;23.350;2023-06-14T07:27:45;64065.13;;;20.01;100.00
6899;BME280;3488;42.616;23.350;2023-06-14T07:30:13;64121.97;;;20.51;100.00
6899;BME280;3488;42.616;23.350;2023-06-14T07:32:40;64166.34;;;20.94;100.00
6899;BME280;3488;42.616;23.350;2023-06-14T07:35:07;64186.72;;;21.13;100.00
6899;BME280;3488;42.616;23.350;2023-06-14T07:37:36;64130.34;;;20.61;100.00
6899;BME280;3488;42.616;23.350;2023-06-14T07:40:03;64117.34;;;20.54;100.00
6899;BME280;3488;42.616;23.350;2023-06-14T07:42:33;64120.41;;;20.49;100.00
6899;BME280;3488;42.616;23.350;2023-06-14T07:45:00;64138.63;;;20.62;100.00
6899;BME280;3488;42.616;23.350;2023-06-14T07:47:27;64173.66;;;21.01;100.00
6899;BME280;3488;42.616;23.350;2023-06-14T07:49:55;64137.63;;;20.63;100.00
6899;BME280;3488;42.616;23.350;2023-06-14T07:52:21;64114.13;;;20.43;100.00
6899;BME280;3488;42.616;23.350;2023-06-14T07:54:50;64169.47;;;20.97;100.00
6899;BME280;3488;42.616;23.350;2023-06-14T07:57:18;64196.16;;;21.30;100.00
6899;BME280;3488;42.616;23.350;2023-06-14T07:59:45;64208.66;;;21.37;100.00
6899;BME280;3488;42.616;23.350;2023-06-14T08:02:12;64240.53;;;21.67;100.00
6899;BME280;3488;42.616;23.350;2023-06-14T08:04:39;64227.47;;;21.55;100.00
6899;BME280;3488;42.616;23.350;2023-06-14T08:07:07;64182.06;;;21.14;100.00
6899;BME280;3488;42.616;23.350;2023-06-14T08:09:34;64189.88;;;21.21;100.00
6899;BME280;3488;42.616;23.350;2023-06-14T08:12:06;64197.69;;;21.26;100.00
6899;BME280;3488;42.616;23.350;2023-06-14T08:14:35;64183.59;;;21.13;99.29
6899;BME280;3488;42.616;23.350;2023-06-14T08:17:02;64205.00;;;21.31;98.59
6899;BME280;3488;42.616;23.350;2023-06-14T08:19:30;64243.13;;;21.67;96.73
6899;BME280;3488;42.616;23.350;2023-06-14T08:21:57;64281.31;;;22.09;93.80
6899;BME280;3488;42.616;23.350;2023-06-14T08:24:24;64282.34;;;22.08;90.42
6899;BME280;3488;42.616;23.350;2023-06-14T08:26:52;64263.59;;;21.95;90.34
6899;BME280;3488;42.616;23.350;2023-06-14T08:29:20;64287.56;;;22.10;91.83
6899;BME280;3488;42.616;23.350;2023-06-14T08:31:47;64305.88;;;22.30;87.37
6899;BME280;3488;42.616;23.350;2023-06-14T08:34:14;64337.78;;;22.63;86.11
6899;BME280;3488;42.616;23.350;2023-06-14T08:36:42;64346.09;;;22.66;86.90
6899;BME280;3488;42.616;23.350;2023-06-14T08:39:09;64383.78;;;23.05;85.67
6899;BME280;3488;42.616;23.350;2023-06-14T08:41:37;64404.69;;;23.25;84.56
6899;BME280;3488;42.616;23.350;2023-06-14T08:44:04;64389.50;;;23.08;83.71
6899;BME280;3488;42.616;23.350;2023-06-14T08:46:35;64315.28;;;22.42;86.04
6899;BME280;3488;42.616;23.350;2023-06-14T08:49:04;64301.16;;;22.26;88.68
6899;BME280;3488;42.616;23.350;2023-06-14T08:51:35;64292.78;;;22.15;93.81
6899;BME280;3488;42.616;23.350;2023-06-14T08:54:02;64280.75;;;22.01;95.92
6899;BME280;3488;42.616;23.350;2023-06-14T08:56:31;64287.06;;;22.12;95.02
6899;BME280;3488;42.616;23.350;2023-06-14T08:59:00;64329.34;;;22.48;92.75
6899;BME280;3488;42.616;23.350;2023-06-14T09:01:28;64362.84;;;22.85;89.09
6899;BME280;3488;42.616;23.350;2023-06-14T09:03:58;64355.53;;;22.75;89.72
6899;BME280;3488;42.616;23.350;2023-06-14T09:06:25;64352.38;;;22.72;92.38
6899;BME280;3488;42.616;23.350;2023-06-14T09:08:55;64331.44;;;22.52;89.51
6899;BME280;3488;42.616;23.350;2023-06-14T09:11:23;64359.16;;;22.76;91.78
6899;BME280;3488;42.616;23.350;2023-06-14T09:13:51;64385.84;;;23.05;88.23
6899;BME280;3488;42.616;23.350;2023-06-14T09:16:18;64379.59;;;23.01;86.73
6899;BME280;3488;42.616;23.350;2023-06-14T09:18:47;64415.13;;;23.30;84.07
6899;BME280;3488;42.616;23.350;2023-06-14T09:21:16;64448.66;;;23.67;83.65
6899;BME280;3488;42.616;23.350;2023-06-14T09:23:45;64502.53;;;24.14;79.59
6899;BME280;3488;42.616;23.350;2023-06-14T09:26:13;64478.97;;;23.94;81.14
6899;BME280;3488;42.616;23.350;2023-06-14T09:28:41;64507.28;;;24.24;79.67
6899;BME280;3488;42.616;23.350;2023-06-14T09:31:10;64540.25;;;24.53;77.75
6899;BME280;3488;42.616;23.350;2023-06-14T09:33:37;64488.41;;;24.00;77.65
6899;BME280;3488;42.616;23.350;2023-06-14T09:36:04;64485.28;;;24.00;80.27
6899;BME280;3488;42.616;23.350;2023-06-14T09:38:39;64504.13;;;24.21;79.15
6899;BME280;3488;42.616;23.350;2023-06-14T09:41:07;64528.72;;;24.42;80.64
6899;BME280;3488;42.616;23.350;2023-06-14T09:43:34;64522.97;;;24.36;75.50
6899;BME280;3488;42.616;23.350;2023-06-14T09:46:01;64478.97;;;23.94;76.41
6899;BME280;3488;42.616;23.350;2023-06-14T09:48:27;64485.81;;;24.03;75.27
6899;BME280;3488;42.616;23.350;2023-06-14T09:50:55;64449.69;;;23.66;79.01
6899;BME280;3488;42.616;23.350;2023-06-14T09:53:24;64465.38;;;23.83;75.17
6899;BME280;3488;42.616;23.350;2023-06-14T09:55:54;64463.81;;;23.82;75.83
6899;BME280;3488;42.616;23.350;2023-06-14T09:58:26;64498.88;;;24.11;76.70
6899;BME280;3488;42.616;23.350;2023-06-14T10:00:55;64513.56;;;24.32;71.98
6899;BME280;3488;42.616;23.350;2023-06-14T10:03:27;64479.56;;;23.99;76.45
6899;BME280;3488;42.616;23.350;2023-06-14T10:05:55;64463.28;;;23.79;76.05
6899;BME280;3488;42.616;23.350;2023-06-14T10:08:28;64427.75;;;23.50;79.73
6899;BME280;3488;42.616;23.350;2023-06-14T10:11:00;64395.25;;;23.11;79.36
6899;BME280;3488;42.616;23.350;2023-06-14T10:13:29;64386.88;;;23.03;77.42
6899;BME280;3488;42.616;23.350;2023-06-14T10:16:04;64397.91;;;23.19;83.16
6899;BME280;3488;42.616;23.350;2023-06-14T10:18:38;64423.56;;;23.46;86.05
6899;BME280;3488;42.616;23.350;2023-06-14T10:21:16;64459.63;;;23.75;83.59
6899;BME280;3488;42.616;23.350;2023-06-14T10:23:45;64488.44;;;24.06;76.18
6899;BME280;3488;42.616;23.350;2023-06-14T10:26:19;64487.38;;;24.05;79.27
6899;BME280;3488;42.616;23.350;2023-06-14T10:29:01;64482.09;;;23.94;76.08
6899;BME280;3488;42.616;23.350;2023-06-14T10:31:40;64491.06;;;24.08;75.66
6899;BME280;3488;42.616;23.350;2023-06-14T10:34:08;64491.06;;;24.08;73.15
6899;BME280;3488;42.616;23.350;2023-06-14T10:36:35;64485.84;;;24.08;72.71
6899;BME280;3488;42.616;23.350;2023-06-14T10:39:06;64461.72;;;23.80;74.40
6899;BME280;3488;42.616;23.350;2023-06-14T10:41:37;64504.66;;;24.24;71.92
6899;BME280;3488;42.616;23.350;2023-06-14T10:44:39;64564.91;;;24.81;66.11
6899;BME280;3488;42.616;23.350;2023-06-14T10:47:07;64568.53;;;24.80;68.52
6899;BME280;3488;42.616;23.350;2023-06-14T10:49:40;64602.06;;;25.17;67.13
6899;BME280;3488;42.616;23.350;2023-06-14T10:52:12;64629.88;;;25.44;65.55
6899;BME280;3488;42.616;23.350;2023-06-14T10:55:08;64659.19;;;25.69;62.14
6899;BME280;3488;42.616;23.350;2023-06-14T10:57:43;64668.09;;;25.78;61.66
6899;BME280;3488;42.616;23.350;2023-06-14T11:00:12;64686.94;;;25.93;60.18
6899;BME280;3488;42.616;23.350;2023-06-14T11:03:28;64658.13;;;25.68;60.29
6899;BME280;3488;42.616;23.350;2023-06-14T11:06:00;64563.34;;;24.82;68.87
6899;BME280;3488;42.616;23.350;2023-06-14T11:11:37;64554.41;;;24.69;69.10
6899;BME280;3488;42.616;23.350;2023-06-14T11:14:06;64571.19;;;24.85;66.59
6899;BME280;3488;42.616;23.350;2023-06-14T11:16:33;64592.09;;;25.02;65.84
6899;BME280;3488;42.616;23.350;2023-06-14T11:19:01;64585.31;;;24.98;65.10
6899;BME280;3488;42.616;23.350;2023-06-14T11:21:32;64587.38;;;24.98;66.30
6899;BME280;3488;42.616;23.350;2023-06-14T11:23:59;64641.38;;;25.52;64.20
6899;BME280;3488;42.616;23.350;2023-06-14T11:26:27;64670.69;;;25.78;59.59
6899;BME280;3488;42.616;23.350;2023-06-14T11:28:58;64683.28;;;25.92;58.63
6899;BME280;3488;42.616;23.350;2023-06-14T11:31:30;64650.28;;;25.61;60.06
6899;BME280;3488;42.616;23.350;2023-06-14T11:33:58;64598.41;;;25.13;60.35
6899;BME280;3488;42.616;23.350;2023-06-14T11:36:26;64585.81;;;24.99;62.56
6899;BME280;3488;42.616;23.350;2023-06-14T11:38:58;64577.44;;;24.88;64.70
6899;BME280;3488;42.616;23.350;2023-06-14T11:41:25;64564.88;;;24.76;63.99
6899;BME280;3488;42.616;23.350;2023-06-14T11:43:52;64570.13;;;24.81;66.92
6899;BME280;3488;42.616;23.350;2023-06-14T11:46:20;64571.19;;;24.87;68.60
6899;BME280;3488;42.616;23.350;2023-06-14T11:48:51;64592.09;;;25.00;67.54
6899;BME280;3488;42.616;23.350;2023-06-14T11:51:19;64586.31;;;24.94;65.06
6899;BME280;3488;42.616;23.350;2023-06-14T11:53:47;64611.50;;;25.21;63.77
6899;BME280;3488;42.616;23.350;2023-06-14T11:56:14;64680.66;;;25.87;64.26
6899;BME280;3488;42.616;23.350;2023-06-14T11:58:42;64756.16;;;26.57;60.58
6899;BME280;3488;42.616;23.350;2023-06-14T12:01:14;64747.78;;;26.52;53.57
6899;BME280;3488;42.616;23.350;2023-06-14T12:03:47;64744.13;;;26.51;55.51
6899;BME280;3488;42.616;23.350;2023-06-14T12:06:26;64722.59;;;26.28;56.90
6899;BME280;3488;42.616;23.350;2023-06-14T12:08:58;64728.38;;;26.36;58.49
6899;BME280;3488;42.616;23.350;2023-06-14T12:11:32;64697.94;;;26.01;58.29
6899;BME280;3488;42.616;23.350;2023-06-14T12:13:59;64663.38;;;25.73;60.52
6899;BME280;3488;42.616;23.350;2023-06-14T12:16:30;64630.91;;;25.45;63.47
6899;BME280;3488;42.616;23.350;2023-06-14T12:19:00;64624.06;;;25.36;66.73
6899;BME280;3488;42.616;23.350;2023-06-14T12:21:29;64569.06;;;24.80;67.26
6899;BME280;3488;42.616;23.350;2023-06-14T12:23:58;64565.38;;;24.74;67.31
6899;BME280;3488;42.616;23.350;2023-06-14T12:26:26;64560.69;;;24.72;68.18
6899;BME280;3488;42.616;23.350;2023-06-14T12:28:53;64536.59;;;24.52;72.63
6899;BME280;3488;42.616;23.350;2023-06-14T12:31:20;64540.25;;;24.55;73.79
6899;BME280;3488;42.616;23.350;2023-06-14T12:33:47;64558.06;;;24.72;76.86
6899;BME280;3488;42.616;23.350;2023-06-14T12:36:16;64561.22;;;24.78;76.66
6899;BME280;3488;42.616;23.350;2023-06-14T12:38:44;64565.91;;;24.75;70.28
6899;BME280;3488;42.616;23.350;2023-06-14T12:41:11;64548.09;;;24.63;71.49
6899;BME280;3488;42.616;23.350;2023-06-14T12:43:39;64506.22;;;24.20;76.70
6899;BME280;3488;42.616;23.350;2023-06-14T12:46:06;64520.88;;;24.37;75.49
6899;BME280;3488;42.616;23.350;2023-06-14T12:48:33;64511.44;;;24.25;73.06
6899;BME280;3488;42.616;23.350;2023-06-14T12:51:00;64508.31;;;24.25;73.98
6899;BME280;3488;42.616;23.350;2023-06-14T12:53:27;64473.25;;;23.91;75.76
6899;BME280;3488;42.616;23.350;2023-06-14T12:55:56;64477.41;;;23.92;78.54
6899;BME280;3488;42.616;23.350;2023-06-14T12:58:23;64425.66;;;23.48;81.03
6899;BME280;3488;42.616;23.350;2023-06-14T13:00:51;64398.44;;;23.19;83.05
6899;BME280;3488;42.616;23.350;2023-06-14T13:03:18;64385.84;;;23.05;81.95
6899;BME280;3488;42.616;23.350;2023-06-14T13:05:45;64366.00;;;22.88;85.78
6899;BME280;3488;42.616;23.350;2023-06-14T13:08:16;64327.81;;;22.51;87.90
6899;BME280;3488;42.616;23.350;2023-06-14T13:10:44;64283.41;;;22.09;92.69
6899;BME280;3488;42.616;23.350;2023-06-14T13:13:12;64248.34;;;21.72;96.14
6899;BME280;3488;42.616;23.350;2023-06-14T13:15:40;64231.09;;;21.56;99.07
6899;BME280;3488;42.616;23.350;2023-06-14T13:18:07;64213.34;;;21.36;100.00
6899;BME280;3488;42.616;23.350;2023-06-14T13:20:34;64198.22;;;21.24;100.00
6899;BME280;3488;42.616;23.350;2023-06-14T13:23:00;64172.63;;;21.02;100.00
6899;BME280;3488;42.616;23.350;2023-06-14T13:25:29;64128.75;;;20.57;100.00
6899;BME280;3488;42.616;23.350;2023-06-14T13:27:57;64097.47;;;20.30;100.00
6899;BME280;3488;42.616;23.350;2023-06-14T13:30:25;64082.28;;;20.10;100.00